Time;durP1;ratioP1;P1;durP2;ratioP2;P2;SDS_P1;SDS_P2;PMS_P1;PMS_P2;Temp;Humidity;BMP_temperature;BMP_pressure;BME280_temperature;BME280_humidity;BME280_pressure;Samples;Min_cycle;Max_cycle;Signal;HPM_P1;HPM_P2
2021/11/19 00:00:09;;;;;;;0.22;0.20;;;;;;;15.11;100.00;101048.72;5075419;28;20526;-52
2021/11/19 00:03:13;;;;;;;0.10;0.10;;;;;;;15.11;100.00;101047.94;5075582;28;20040;-52
2021/11/19 00:06:17;;;;;;;0.10;0.10;;;;;;;15.10;100.00;101047.16;5075590;28;20059;-52
2021/11/19 00:09:20;;;;;;;0.10;0.10;;;;;;;15.11;100.00;101054.31;5075243;28;20068;-52
2021/11/19 00:12:24;;;;;;;0.65;0.28;;;;;;;15.09;100.00;101044.81;5077010;28;20116;-51
2021/11/19 00:15:28;;;;;;;0.10;0.10;;;;;;;15.07;100.00;101047.34;5075328;28;20094;-52
2021/11/19 00:18:32;;;;;;;1.27;0.20;;;;;;;15.05;100.00;101052.66;5075259;28;20097;-52
2021/11/19 00:21:36;;;;;;;0.50;0.35;;;;;;;15.12;100.00;101044.63;5086835;28;20050;-52
2021/11/19 00:24:41;;;;;;;0.40;0.10;;;;;;;15.07;100.00;101047.34;5074851;28;20043;-51
2021/11/19 00:27:46;;;;;;;3.13;1.50;;;;;;;15.52;100.00;101044.22;5074353;28;20047;-51
2021/11/19 00:30:49;;;;;;;0.03;0.00;;;;;;;15.60;100.00;101027.75;5074770;28;20102;-52
2021/11/19 00:33:55;;;;;;;0.00;0.00;;;;;;;15.55;100.00;101031.25;5075015;28;20416;-52
2021/11/19 00:36:58;;;;;;;0.10;0.10;;;;;;;15.54;100.00;101038.13;5073541;28;20066;-52
2021/11/19 00:40:04;;;;;;;0.10;0.00;;;;;;;15.54;100.00;101032.50;5074705;28;20538;-52
2021/11/19 00:43:08;;;;;;;1.02;0.40;;;;;;;15.64;100.00;101028.34;5074073;28;20472;-52
2021/11/19 00:46:12;;;;;;;0.00;0.00;;;;;;;15.59;100.00;101037.44;5074782;28;20128;-51
2021/11/19 00:49:17;;;;;;;0.15;0.10;;;;;;;15.62;100.00;101034.44;5074265;28;20035;-52
2021/11/19 00:52:23;;;;;;;0.10;0.00;;;;;;;15.58;100.00;101028.25;5074197;28;20641;-52
2021/11/19 00:55:26;;;;;;;0.10;0.10;;;;;;;15.52;100.00;101044.22;5080187;28;20446;-52
2021/11/19 00:58:30;;;;;;;0.10;0.10;;;;;;;15.52;100.00;101032.19;5079999;28;20048;-52
2021/11/19 01:01:37;;;;;;;0.15;0.10;;;;;;;15.47;100.00;101030.84;5074587;28;20043;-52
2021/11/19 01:04:43;;;;;;;0.00;0.00;;;;;;;15.56;100.00;101032.78;5073319;28;20082;-52
2021/11/19 01:07:47;;;;;;;0.10;0.08;;;;;;;15.58;100.00;101024.66;5074305;28;20048;-50
2021/11/19 01:10:52;;;;;;;0.10;0.00;;;;;;;15.47;100.00;101008.38;5079029;28;20090;-52
2021/11/19 01:13:57;;;;;;;0.10;0.10;;;;;;;15.47;100.00;101008.38;5074094;28;20052;-52
2021/11/19 01:17:07;;;;;;;0.22;0.20;;;;;;;15.38;100.00;101016.06;5073466;28;20094;-52
2021/11/19 01:20:20;;;;;;;0.00;0.00;;;;;;;15.54;100.00;101012.84;5074059;28;20566;-52
2021/11/19 01:23:25;;;;;;;0.45;0.10;;;;;;;15.54;100.00;101004.41;5074178;28;20036;-52
2021/11/19 01:26:32;;;;;;;4.57;0.20;;;;;;;15.47;100.00;100996.38;5074319;28;20492;-52
2021/11/19 01:29:35;;;;;;;0.20;0.10;;;;;;;15.39;100.00;100995.16;5071538;28;20401;-51
2021/11/19 01:32:39;;;;;;;0.43;0.32;;;;;;;15.34;100.00;100996.59;5072675;28;20110;-52
2021/11/19 01:35:42;;;;;;;0.30;0.30;;;;;;;15.23;100.00;101004.81;5073834;28;20054;-52
2021/11/19 01:38:47;;;;;;;0.10;0.00;;;;;;;15.26;100.00;101005.88;5073799;28;20051;-52
2021/11/19 01:41:56;;;;;;;0.85;0.20;;;;;;;15.24;100.00;101000.75;5072555;28;20086;-52
2021/11/19 01:45:14;;;;;;;26.20;0.60;;;;;;;15.13;100.00;101006.91;5073767;28;20542;-52
2021/11/19 01:48:20;;;;;;;0.00;0.00;;;;;;;15.12;100.00;100999.75;5073203;28;20097;-52
2021/11/19 01:51:36;;;;;;;0.10;0.00;;;;;;;15.07;100.00;100991.97;5073441;28;20052;-52
2021/11/19 01:54:50;;;;;;;0.43;0.10;;;;;;;15.11;100.00;100991.81;5073371;28;20055;-53
2021/11/19 01:58:20;;;;;;;1.38;0.52;;;;;;;15.31;100.00;100999.59;5072222;28;20038;-52
2021/11/19 02:01:32;;;;;;;0.25;0.25;;;;;;;15.42;100.00;101000.59;5072938;28;20122;-51
2021/11/19 02:04:50;;;;;;;0.00;0.00;;;;;;;15.47;100.00;100996.38;5072668;28;20083;-52
2021/11/19 02:07:57;;;;;;;0.10;0.00;;;;;;;15.55;100.00;100992.69;5073220;28;20101;-52
2021/11/19 02:11:32;;;;;;;0.10;0.10;;;;;;;15.48;100.00;101015.56;5079353;28;20548;-51
2021/11/19 02:15:01;;;;;;;0.55;0.20;;;;;;;15.46;100.00;101003.25;5072819;28;20047;-52
2021/11/19 02:18:12;;;;;;;0.10;0.00;;;;;;;15.49;100.00;100999.47;5072650;28;20035;-52
2021/11/19 02:21:28;;;;;;;0.10;0.00;;;;;;;15.37;100.00;100998.47;5072910;28;20133;-52
2021/11/19 02:24:46;;;;;;;0.10;0.10;;;;;;;15.28;100.00;101006.94;5073941;28;20090;-52
2021/11/19 02:27:57;;;;;;;0.10;0.10;;;;;;;15.26;100.00;101008.69;5083539;28;20043;-52
2021/11/19 02:31:12;;;;;;;0.10;0.10;;;;;;;15.29;100.00;101005.69;5072881;28;20047;-52
2021/11/19 02:34:15;;;;;;;0.65;0.22;;;;;;;15.26;100.00;101005.88;5072962;28;20120;-52
2021/11/19 02:37:28;;;;;;;0.10;0.00;;;;;;;15.26;100.00;101003.06;5072759;28;20514;-52
2021/11/19 02:40:34;;;;;;;0.65;0.20;;;;;;;15.18;100.00;100997.81;5072538;28;20143;-52
2021/11/19 02:43:47;;;;;;;1.08;0.20;;;;;;;15.09;100.00;100995.06;5072958;28;20435;-52
2021/11/19 02:46:59;;;;;;;0.20;0.20;;;;;;;15.17;100.00;101001.91;5072454;28;20043;-52
2021/11/19 02:50:04;;;;;;;0.10;0.10;;;;;;;15.13;100.00;100995.69;5072673;28;20044;-52
2021/11/19 02:53:09;;;;;;;0.38;0.20;;;;;;;14.86;100.00;100993.06;5072202;28;20404;-51
2021/11/19 02:56:13;;;;;;;0.10;0.00;;;;;;;14.72;100.00;100993.00;5072623;28;20043;-52
2021/11/19 02:59:19;;;;;;;0.10;0.10;;;;;;;14.84;100.00;101001.19;5072411;28;20039;-52
2021/11/19 03:02:26;;;;;;;0.45;0.45;;;;;;;14.79;100.00;100992.66;5072519;28;20067;-52
2021/11/19 03:05:30;;;;;;;0.10;0.10;;;;;;;14.58;100.00;100988.88;5072183;28;20408;-52
2021/11/19 03:08:34;;;;;;;0.25;0.20;;;;;;;14.49;100.00;100997.31;5072126;28;20043;-52
2021/11/19 03:11:40;;;;;;;0.10;0.00;;;;;;;14.89;100.00;100989.31;5083036;28;20043;-52
2021/11/19 03:14:47;;;;;;;0.10;0.00;;;;;;;14.96;100.00;100985.38;5072004;28;20104;-52
2021/11/19 03:17:50;;;;;;;0.52;0.45;;;;;;;14.82;100.00;100986.88;5071672;28;20424;-52
2021/11/19 03:20:57;;;;;;;0.17;0.17;;;;;;;14.86;100.00;100987.47;5072328;28;20047;-52
2021/11/19 03:24:00;;;;;;;0.20;0.20;;;;;;;14.81;100.00;100978.94;5070020;28;20613;-52
2021/11/19 03:27:06;;;;;;;0.10;0.10;;;;;;;14.81;100.00;100996.53;5070455;28;20106;-52
2021/11/19 03:30:12;;;;;;;0.30;0.30;;;;;;;14.79;100.00;100987.81;5069937;28;20082;-52
2021/11/19 03:33:20;;;;;;;0.10;0.10;;;;;;;14.78;100.00;100991.88;5070132;28;20067;-52
2021/11/19 03:36:25;;;;;;;2.55;0.20;;;;;;;14.68;100.00;100987.59;5070924;28;20044;-52
2021/11/19 03:39:30;;;;;;;4.72;0.52;;;;;;;14.73;100.00;100986.13;5086195;28;20058;-52
2021/11/19 03:42:33;;;;;;;0.10;0.08;;;;;;;14.81;100.00;100988.09;5071852;28;20106;-52
2021/11/19 03:45:42;;;;;;;0.13;0.10;;;;;;;14.85;100.00;100985.94;5071153;28;20044;-52
2021/11/19 03:48:46;;;;;;;0.20;0.20;;;;;;;14.87;100.00;100977.03;5079036;28;20078;-52
2021/11/19 03:51:53;;;;;;;0.50;0.20;;;;;;;14.91;100.00;100983.22;5083464;28;20106;-52
2021/11/19 03:55:01;;;;;;;0.20;0.20;;;;;;;14.85;100.00;100985.13;5070783;28;20051;-51
2021/11/19 03:58:05;;;;;;;0.35;0.30;;;;;;;14.79;100.00;100984.25;5071404;28;20515;-52
2021/11/19 04:01:13;;;;;;;0.32;0.10;;;;;;;14.82;100.00;100988.88;5071652;28;20039;-52
2021/11/19 04:04:21;;;;;;;0.52;0.40;;;;;;;14.85;100.00;100987.94;5071278;28;20036;-52
2021/11/19 04:07:25;;;;;;;0.20;0.20;;;;;;;14.85;100.00;100991.53;5071753;28;20044;-52
2021/11/19 04:10:28;;;;;;;0.10;0.00;;;;;;;14.87;100.00;100997.44;5073209;28;20051;-52
2021/11/19 04:13:32;;;;;;;0.20;0.20;;;;;;;14.89;100.00;100986.50;5075046;28;20094;-52
2021/11/19 04:16:41;;;;;;;0.52;0.20;;;;;;;14.90;100.00;101004.13;5074724;28;20101;-52
2021/11/19 04:19:46;;;;;;;0.43;0.22;;;;;;;14.91;100.00;101000.06;5074745;28;20096;-51
2021/11/19 04:22:50;;;;;;;0.10;0.10;;;;;;;15.03;100.00;101002.59;5074719;28;20515;-51
2021/11/19 04:25:55;;;;;;;0.80;0.10;;;;;;;15.15;100.00;101003.63;5074088;28;20109;-52
2021/11/19 04:28:58;;;;;;;5.13;0.73;;;;;;;15.22;100.00;101013.72;5074748;28;20075;-50
2021/11/19 04:32:02;;;;;;;0.73;0.30;;;;;;;15.23;100.00;101002.00;5081546;28;20109;-50
2021/11/19 04:35:06;;;;;;;0.40;0.25;;;;;;;15.22;100.00;101008.88;5078435;28;20553;-50
2021/11/19 04:38:09;;;;;;;0.70;0.28;;;;;;;15.15;100.00;100993.19;5074703;28;20089;-50
2021/11/19 04:41:15;;;;;;;0.10;0.10;;;;;;;15.18;100.00;101009.03;5074685;28;20094;-50
2021/11/19 04:44:20;;;;;;;0.85;0.43;;;;;;;15.19;100.00;101005.00;5079202;28;20085;-50
2021/11/19 04:47:23;;;;;;;0.30;0.20;;;;;;;15.20;100.00;101012.16;5074060;28;21048;-50
2021/11/19 04:50:30;;;;;;;0.20;0.10;;;;;;;15.14;100.00;101014.06;5074817;28;20110;-50
2021/11/19 04:53:34;;;;;;;0.30;0.10;;;;;;;15.14;100.00;101019.69;5074171;28;20086;-51
2021/11/19 04:56:41;;;;;;;0.25;0.20;;;;;;;15.10;100.00;101013.47;5074676;28;20044;-51
2021/11/19 04:59:45;;;;;;;0.20;0.20;;;;;;;15.11;100.00;101009.44;5074122;28;20139;-50
2021/11/19 05:02:47;;;;;;;0.57;0.10;;;;;;;15.09;100.00;101011.16;5073939;28;20410;-50
2021/11/19 05:05:52;;;;;;;0.60;0.30;;;;;;;15.11;100.00;101017.84;5074017;28;20140;-50
2021/11/19 05:08:54;;;;;;;0.93;0.47;;;;;;;15.14;100.00;101014.06;5082494;28;20047;-51
2021/11/19 05:12:12;;;;;;;0.28;0.20;;;;;;;15.13;100.00;101022.97;5089503;28;20435;-51
2021/11/19 05:15:17;;;;;;;0.20;0.00;;;;;;;15.17;100.00;101017.94;5074453;28;20055;-50
2021/11/19 05:18:22;;;;;;;0.10;0.00;;;;;;;15.14;100.00;101019.69;5081388;28;20068;-51
2021/11/19 05:21:25;;;;;;;4.82;0.20;;;;;;;15.23;100.00;101026.47;5078014;28;20051;-50
2021/11/19 05:24:28;;;;;;;0.30;0.20;;;;;;;15.22;100.00;101027.75;5073362;28;20082;-51
2021/11/19 05:27:35;;;;;;;2.45;0.55;;;;;;;15.22;100.00;101033.34;5073783;28;20060;-50
2021/11/19 05:30:40;;;;;;;0.10;0.08;;;;;;;15.14;100.00;101036.50;5073391;28;20503;-50
2021/11/19 05:33:44;;;;;;;0.30;0.20;;;;;;;15.09;100.00;101039.97;5072872;28;20442;-50
2021/11/19 05:36:48;;;;;;;0.32;0.10;;;;;;;15.12;100.00;101039.03;5073628;28;20384;-50
2021/11/19 05:39:50;;;;;;;1.23;0.20;;;;;;;15.17;100.00;101041.19;5072905;28;20447;-50
2021/11/19 05:42:54;;;;;;;2.60;0.40;;;;;;;15.14;100.00;101030.13;5073733;28;20043;-50
2021/11/19 05:45:57;;;;;;;0.20;0.13;;;;;;;15.17;100.00;101035.56;5073478;28;20048;-50
2021/11/19 05:49:01;;;;;;;0.50;0.10;;;;;;;15.14;100.00;101036.50;5072940;28;20043;-50
2021/11/19 05:52:07;;;;;;;0.68;0.30;;;;;;;15.08;100.00;101034.84;5072381;28;20035;-50
2021/11/19 05:55:15;;;;;;;0.17;0.17;;;;;;;14.90;100.00;101027.31;5073624;28;20105;-50
2021/11/19 05:58:20;;;;;;;4.65;0.38;;;;;;;14.88;100.00;101034.66;5078009;28;20408;-50
2021/11/19 06:01:26;;;;;;;0.32;0.20;;;;;;;15.03;100.00;101030.66;5079436;28;20067;-50
2021/11/19 06:04:29;;;;;;;0.17;0.08;;;;;;;15.07;100.00;101036.13;5072923;28;20051;-50
2021/11/19 06:07:33;;;;;;;0.43;0.10;;;;;;;15.04;100.00;101042.66;5073298;28;20507;-50
2021/11/19 06:10:49;;;;;;;1.10;0.40;;;;;;;14.99;100.00;101038.50;5075720;28;20043;-50
2021/11/19 06:14:06;;;;;;;0.63;0.38;;;;;;;14.99;100.00;101046.91;5074575;28;20109;-50
2021/11/19 06:17:18;;;;;;;0.25;0.25;;;;;;;15.06;100.00;101038.13;5072542;28;20090;-50
2021/11/19 06:20:25;;;;;;;0.10;0.00;;;;;;;15.11;100.00;101043.09;5072886;28;20052;-50
2021/11/19 06:23:38;;;;;;;0.20;0.20;;;;;;;15.11;100.00;101048.72;5072631;28;20447;-50
2021/11/19 06:26:44;;;;;;;0.43;0.20;;;;;;;15.09;100.00;101051.19;5072606;28;20121;-50
2021/11/19 06:29:47;;;;;;;0.10;0.10;;;;;;;15.04;100.00;101049.06;5071860;28;20500;-50
2021/11/19 06:32:50;;;;;;;0.00;0.00;;;;;;;15.02;100.00;101045.19;5071866;28;20043;-50
2021/11/19 06:35:53;;;;;;;1.48;0.30;;;;;;;15.06;100.00;101057.78;5071562;28;20044;-50
2021/11/19 06:38:57;;;;;;;0.32;0.10;;;;;;;15.05;100.00;101061.81;5071540;28;20059;-50
2021/11/19 06:42:01;;;;;;;0.45;0.22;;;;;;;15.11;100.00;101062.75;5071937;28;20094;-50
2021/11/19 06:45:05;;;;;;;0.10;0.10;;;;;;;15.10;100.00;101069.59;5072363;28;20129;-50
2021/11/19 06:48:08;;;;;;;1.20;0.20;;;;;;;15.05;100.00;101067.44;5072304;28;20051;-50
2021/11/19 06:51:11;;;;;;;0.75;0.10;;;;;;;15.13;100.00;101068.66;5072439;28;20035;-50
2021/11/19 06:54:14;;;;;;;0.90;0.32;;;;;;;15.15;100.00;101066.16;5072130;28;20047;-50
2021/11/19 06:57:19;;;;;;;0.20;0.17;;;;;;;15.06;100.00;101082.25;5072321;28;20043;-50
2021/11/19 07:00:25;;;;;;;0.10;0.00;;;;;;;14.94;100.00;101081.22;5073981;28;20063;-50
2021/11/19 07:03:29;;;;;;;0.25;0.10;;;;;;;14.84;100.00;101088.13;5081214;28;20038;-50
2021/11/19 07:06:33;;;;;;;0.10;0.10;;;;;;;14.96;100.00;101087.16;5072121;28;20097;-50
2021/11/19 07:09:37;;;;;;;0.20;0.10;;;;;;;14.94;100.00;101089.63;5072182;28;20503;-51
2021/11/19 07:12:41;;;;;;;0.10;0.08;;;;;;;14.90;100.00;101089.03;5072125;28;20046;-50
2021/11/19 07:15:45;;;;;;;1.30;0.90;;;;;;;14.83;100.00;101095.00;5071683;28;20043;-50
2021/11/19 07:18:48;;;;;;;0.10;0.03;;;;;;;14.85;100.00;101102.94;5071989;28;20051;-50
2021/11/19 07:21:53;;;;;;;0.10;0.10;;;;;;;14.86;100.00;101108.06;5071497;28;20074;-50
2021/11/19 07:24:57;;;;;;;0.15;0.10;;;;;;;14.83;100.00;101102.63;5071837;28;20040;-50
2021/11/19 07:28:01;;;;;;;0.65;0.25;;;;;;;14.86;100.00;101115.69;5071858;28;20102;-50
2021/11/19 07:31:08;;;;;;;0.10;0.10;;;;;;;14.92;100.00;101114.56;5071902;28;20051;-50
2021/11/19 07:34:11;;;;;;;1.25;0.10;;;;;;;14.90;100.00;101114.28;5071715;28;20178;-51
2021/11/19 07:37:14;;;;;;;0.45;0.45;;;;;;;14.83;100.00;101111.84;5072401;28;20572;-51
2021/11/19 07:40:30;;;;;;;0.20;0.10;;;;;;;14.76;100.00;101119.78;5071364;28;20051;-51
2021/11/19 07:43:35;;;;;;;0.35;0.17;;;;;;;14.78;100.00;101125.72;5072105;28;20039;-51
2021/11/19 07:46:39;;;;;;;0.85;0.10;;;;;;;14.87;100.00;101122.88;5072623;28;20054;-51
2021/11/19 07:49:43;;;;;;;0.20;0.10;;;;;;;14.83;100.00;101128.66;5075362;28;20047;-51
2021/11/19 07:52:46;;;;;;;0.52;0.40;;;;;;;14.79;100.00;101128.03;5074736;28;20044;-53
2021/11/19 07:55:51;;;;;;;0.20;0.05;;;;;;;14.74;100.00;101125.09;5075122;28;20044;-51
2021/11/19 07:58:54;;;;;;;0.57;0.28;;;;;;;14.67;100.00;101123.41;5092000;28;20404;-51
2021/11/19 08:01:59;;;;;;;0.30;0.30;;;;;;;14.59;100.00;101121.44;5075769;28;20116;-51
2021/11/19 08:05:05;;;;;;;0.20;0.00;;;;;;;14.51;100.00;101134.22;5075016;28;20456;-51
2021/11/19 08:08:08;;;;;;;0.10;0.10;;;;;;;14.30;100.00;101136.75;5075361;28;20131;-51
2021/11/19 08:11:12;;;;;;;0.35;0.10;;;;;;;14.15;100.00;101140.63;5077185;28;20123;-51
2021/11/19 08:14:15;;;;;;;0.80;0.10;;;;;;;13.99;100.00;101143.78;5075337;28;20044;-51
2021/11/19 08:17:32;;;;;;;0.13;0.13;;;;;;;13.91;100.00;101153.72;5075122;28;20516;-51
2021/11/19 08:20:39;;;;;;;4.53;0.52;;;;;;;13.84;100.00;101154.06;5074647;28;20043;-51
2021/11/19 08:23:49;;;;;;;0.10;0.10;;;;;;;13.80;100.00;101153.41;5074713;28;20067;-51
2021/11/19 08:26:57;;;;;;;0.47;0.30;;;;;;;13.74;100.00;101150.47;5074681;28;20059;-50
2021/11/19 08:30:05;;;;;;;0.20;0.10;;;;;;;13.69;100.00;101156.69;5074578;28;20048;-51
2021/11/19 08:33:09;;;;;;;0.55;0.55;;;;;;;13.59;100.00;101153.09;5074626;28;20047;-51
2021/11/19 08:36:12;;;;;;;0.25;0.10;;;;;;;13.56;100.00;101151.22;5074614;28;20225;-51
2021/11/19 08:39:20;;;;;;;0.63;0.40;;;;;;;13.59;100.00;101155.91;5079349;28;20078;-51
2021/11/19 08:42:25;;;;;;;5.80;0.63;;;;;;;13.65;100.00;101159.63;5081001;28;20098;-50
2021/11/19 08:45:30;;;;;;;0.95;0.50;;;;;;;13.57;100.00;101158.38;5074468;28;20381;-50
2021/11/19 08:48:34;;;;;;;0.10;0.10;;;;;;;13.60;100.00;101156.66;5074454;28;20101;-51
2021/11/19 08:51:37;;;;;;;0.95;0.52;;;;;;;13.71;100.00;101167.44;5074061;28;20086;-51
2021/11/19 08:54:41;;;;;;;0.10;0.10;;;;;;;13.82;100.00;101167.75;5074605;28;20439;-51
2021/11/19 08:57:44;;;;;;;0.75;0.40;;;;;;;13.93;100.00;101168.03;5072672;28;20063;-50
2021/11/19 09:00:50;;;;;;;3.10;0.17;;;;;;;13.97;100.00;101169.44;5074098;28;20042;-50
2021/11/19 09:03:53;;;;;;;0.10;0.10;;;;;;;14.14;100.00;101167.13;5085065;28;20043;-51
2021/11/19 09:06:57;;;;;;;0.10;0.00;;;;;;;14.18;100.00;101173.34;5074226;28;20051;-50
2021/11/19 09:10:04;;;;;;;0.25;0.10;;;;;;;14.11;100.00;101170.84;5074169;28;20055;-50
2021/11/19 09:13:07;;;;;;;0.30;0.15;;;;;;;14.06;100.00;101177.06;5073105;28;20068;-50
2021/11/19 09:16:14;;;;;;;0.95;0.20;;;;;;;14.06;100.00;101182.66;5082556;28;20039;-51
2021/11/19 09:19:23;;;;;;;0.43;0.28;;;;;;;14.08;100.00;101180.97;5072972;28;20043;-50
2021/11/19 09:22:49;;;;;;;0.38;0.20;;;;;;;14.14;100.00;101172.72;5081308;28;20086;-51
2021/11/19 09:25:55;;;;;;;0.75;0.30;;;;;;;14.31;100.00;101171.19;5073519;28;20056;-51
2021/11/19 09:29:00;;;;;;;1.67;0.40;;;;;;;14.47;100.00;101173.63;5073223;28;20051;-50
2021/11/19 09:32:05;;;;;;;0.47;0.30;;;;;;;14.66;100.00;101179.97;5090262;28;20050;-51
2021/11/19 09:35:08;;;;;;;0.40;0.20;;;;;;;14.76;100.00;101179.47;5076329;28;20066;-51
2021/11/19 09:38:14;;;;;;;0.10;0.10;;;;;;;14.94;100.00;101185.00;5073181;28;20487;-50
2021/11/19 09:41:48;;;;;;;0.10;0.10;;;;;;;15.11;100.00;101183.41;5073218;28;20040;-51
2021/11/19 09:45:12;;;;;;;0.10;0.10;;;;;;;15.17;100.00;101169.47;5072395;28;20097;-51
2021/11/19 09:48:31;;;;;;;0.15;0.10;;;;;;;15.32;100.00;101177.97;5073446;28;20047;-51
2021/11/19 09:51:46;;;;;;;0.22;0.10;;;;;;;15.33;100.00;101177.53;5073160;28;20055;-51
2021/11/19 09:55:07;;;;;;;0.30;0.10;;;;;;;15.34;100.00;101178.28;5073140;28;20134;-51
2021/11/19 09:58:55;;;;;;;3.03;0.22;;;;;;;15.38;100.00;101178.88;5072779;28;20058;-51
2021/11/19 10:02:20;;;;;;;0.10;0.00;;;;;;;15.42;100.00;101179.50;5073296;28;20435;-51
2021/11/19 10:06:25;;;;;;;0.10;0.10;;;;;;;15.41;100.00;101177.94;5072796;28;20518;-51
2021/11/19 10:10:09;;;;;;;2.63;0.20;;;;;;;15.40;100.00;101193.22;5068409;28;20082;-51
2021/11/19 10:13:21;;;;;;;0.85;0.22;;;;;;;15.32;100.00;101189.19;5074737;28;20054;-51
2021/11/19 10:16:47;;;;;;;0.20;0.20;;;;;;;15.28;100.00;101194.22;5083988;28;20550;-51
2021/11/19 10:19:57;;;;;;;0.30;0.30;;;;;;;15.16;100.00;101196.75;5073273;28;20123;-51
2021/11/19 10:23:05;;;;;;;0.10;0.10;;;;;;;15.07;100.00;101193.25;5072373;28;20414;-51
2021/11/19 10:26:14;;;;;;;0.57;0.25;;;;;;;15.01;100.00;101206.34;5072643;28;20093;-51
2021/11/19 10:29:30;;;;;;;0.35;0.10;;;;;;;15.09;100.00;101197.09;5072339;28;20483;-51
2021/11/19 10:32:34;;;;;;;0.60;0.15;;;;;;;15.03;100.00;101193.38;5072710;28;20078;-51
2021/11/19 10:35:46;;;;;;;1.10;0.30;;;;;;;15.06;100.00;101198.06;5072087;28;20048;-52
2021/11/19 10:38:58;;;;;;;1.33;0.32;;;;;;;15.10;100.00;101195.84;5071968;28;20401;-51
2021/11/19 10:42:28;;;;;;;2.88;0.57;;;;;;;15.26;100.00;101193.91;5071904;28;20047;-51
2021/11/19 10:46:01;;;;;;;0.45;0.08;;;;;;;15.49;100.00;101198.81;5072086;28;20047;-52
2021/11/19 10:49:37;;;;;;;0.17;0.15;;;;;;;15.87;100.00;101182.78;5072262;28;20047;-51
2021/11/19 10:52:49;;;;;;;0.80;0.20;;;;;;;16.31;100.00;101184.91;5076120;28;20043;-51
2021/11/19 10:56:09;;;;;;;0.40;0.13;;;;;;;16.53;100.00;101194.56;5071720;28;20047;-51
2021/11/19 10:59:32;;;;;;;1.90;0.55;;;;;;;16.80;100.00;101189.91;5072289;28;20747;-51
2021/11/19 11:02:53;;;;;;;0.30;0.20;;;;;;;17.02;100.00;101188.22;5071981;28;20102;-51
2021/11/19 11:06:09;;;;;;;0.10;0.10;;;;;;;17.09;100.00;101184.22;5070863;28;20105;-51
2021/11/19 11:09:50;;;;;;;0.47;0.10;;;;;;;17.09;100.00;101182.19;5071724;28;20312;-51
2021/11/19 11:12:53;;;;;;;;;;;;;;;17.16;100.00;101184.59;5072453;28;20055;-51
2021/11/19 11:16:05;;;;;;;0.47;0.30;;;;;;;17.36;100.00;101179.03;5072140;28;20363;-51
2021/11/19 11:19:12;;;;;;;0.10;0.10;;;;;;;17.39;100.00;101178.03;5071725;28;20043;-51
2021/11/19 11:22:20;;;;;;;0.32;0.03;;;;;;;17.27;100.00;101173.50;5074601;28;20043;-51
2021/11/19 11:25:31;;;;;;;0.20;0.10;;;;;;;17.15;100.00;101176.66;5075950;28;20043;-51
2021/11/19 11:28:42;;;;;;;0.65;0.15;;;;;;;16.96;100.00;101175.31;5076070;28;20142;-51
2021/11/19 11:31:56;;;;;;;;;;;;;;;16.88;100.00;101168.53;5075636;28;20043;-51
2021/11/19 11:35:14;;;;;;;0.65;0.47;;;;;;;16.80;100.00;101173.81;5075148;28;20396;-51
2021/11/19 11:38:24;;;;;;;0.30;0.13;;;;;;;16.85;100.00;101167.47;5075663;28;20050;-52
2021/11/19 11:41:40;;;;;;;1.48;0.40;;;;;;;16.93;100.00;101173.50;5075401;28;20094;-51
2021/11/19 11:44:50;;;;;;;0.30;0.17;;;;;;;16.94;100.00;101173.00;5075768;28;20067;-51
2021/11/19 11:48:21;;;;;;;0.20;0.20;;;;;;;16.94;100.00;101163.78;5075526;28;20097;-51
2021/11/19 11:51:26;;;;;;;0.10;0.10;;;;;;;16.81;100.00;101157.69;5075821;28;20090;-51
2021/11/19 11:54:35;;;;;;;0.15;0.15;;;;;;;16.74;100.00;101149.66;5075377;28;20097;-51
2021/11/19 11:57:47;;;;;;;0.10;0.00;;;;;;;16.72;100.00;101160.63;5075206;28;20051;-51
2021/11/19 12:01:08;;;;;;;0.75;0.10;;;;;;;16.61;100.00;101167.59;5075421;28;20082;-51
2021/11/19 12:04:17;;;;;;;;;;;;;;;16.58;100.00;101167.81;5075524;28;20044;-50
2021/11/19 12:07:50;;;;;;;0.63;0.08;;;;;;;16.48;100.00;101158.63;5075376;28;19965;-51
2021/11/19 12:11:12;;;;;;;0.10;0.00;;;;;;;16.37;100.00;101155.63;5079533;28;20402;-51
2021/11/19 12:14:38;;;;;;;0.20;0.10;;;;;;;16.30;100.00;101156.03;5075120;28;20093;-51
2021/11/19 12:17:57;;;;;;;1.40;0.00;;;;;;;16.40;100.00;101159.50;5074853;28;20547;-50
2021/11/19 12:21:15;;;;;;;1.20;0.20;;;;;;;16.42;100.00;101154.97;5075282;28;20089;-51
2021/11/19 12:24:27;;;;;;;0.60;0.20;;;;;;;16.53;100.00;101143.94;5074718;28;20400;-51
2021/11/19 12:27:46;;;;;;;1.33;0.60;;;;;;;16.54;100.00;101144.72;5075289;28;20557;-51
2021/11/19 12:30:57;;;;;;;0.50;0.32;;;;;;;16.60;100.00;101140.75;5074780;28;20089;-50
2021/11/19 12:34:27;;;;;;;0.10;0.00;;;;;;;16.74;100.00;101141.22;5074448;28;20520;-51
2021/11/19 12:38:02;;;;;;;2.58;0.55;;;;;;;16.81;100.00;101133.13;5089284;28;20043;-51
2021/11/19 12:41:25;;;;;;;1.45;0.20;;;;;;;16.92;100.00;101136.13;5083709;28;20044;-51
2021/11/19 12:45:16;;;;;;;13.35;0.25;;;;;;;16.91;100.00;101143.03;5074937;28;20047;-51
2021/11/19 12:48:21;;;;;;;0.20;0.08;;;;;;;17.03;100.00;101136.31;5040701;28;20097;-51
2021/11/19 12:51:53;;;;;;;3.40;0.32;;;;;;;17.23;100.00;101139.16;5072013;28;20047;-51
2021/11/19 12:55:29;;;;;;;1.27;0.38;;;;;;;17.45;100.00;101133.06;5074617;28;20142;-50
2021/11/19 12:58:36;;;;;;;1.20;0.10;;;;;;;17.65;100.00;101124.63;5074554;28;20087;-51
2021/11/19 13:02:17;;;;;;;1.10;0.20;;;;;;;17.75;100.00;101125.25;5074497;28;20055;-51
2021/11/19 13:05:45;;;;;;;1.05;0.20;;;;;;;17.90;100.00;101132.34;5076656;28;20519;-50
2021/11/19 13:08:54;;;;;;;1.92;0.20;;;;;;;17.89;100.00;101130.81;5090433;28;20065;-51
2021/11/19 13:12:00;;;;;;;0.10;0.00;;;;;;;17.86;100.00;101126.16;5091606;28;20046;-51
2021/11/19 13:15:21;;;;;;;0.32;0.10;;;;;;;17.94;100.00;101123.69;5074017;28;20542;-49
2021/11/19 13:18:43;;;;;;;0.10;0.10;;;;;;;18.00;100.00;101127.31;5074336;28;20511;-49
2021/11/19 13:21:48;;;;;;;0.20;0.13;;;;;;;18.13;100.00;101122.88;5055793;28;20654;-49
2021/11/19 13:25:00;;;;;;;0.90;0.35;;;;;;;18.08;100.00;101120.75;5051287;28;20170;-51
2021/11/19 13:28:04;;;;;;;0.20;0.10;;;;;;;17.99;100.00;101120.94;5052305;28;20039;-51
2021/11/19 13:31:19;;;;;;;0.10;0.05;;;;;;;18.02;100.00;101125.56;5050774;28;20694;-51
2021/11/19 13:34:26;;;;;;;0.10;0.10;;;;;;;18.02;100.00;101119.16;5050441;28;20057;-50
2021/11/19 13:38:01;;;;;;;1.42;0.28;;;;;;;18.03;100.00;101120.72;5044182;28;20128;-56
2021/11/19 13:41:31;;;;;;;0.77;0.13;;;;;;;17.93;100.00;101111.63;5043155;28;20047;-50
2021/11/19 13:45:30;;;;;;;4.28;0.55;;;;;;;18.02;100.00;101114.28;5040768;28;20143;-50
2021/11/19 13:48:36;;;;;;;4.10;0.55;;;;;;;18.04;100.00;101100.47;5048053;28;20051;-51
2021/11/19 13:51:47;;;;;;;0.20;0.10;;;;;;;17.98;100.00;101107.31;5047075;28;20032;-51
2021/11/19 13:55:15;;;;;;;1.38;0.65;;;;;;;17.91;100.00;101102.88;5047504;28;20039;-51
2021/11/19 13:58:36;;;;;;;0.10;0.10;;;;;;;17.81;100.00;101101.50;5048256;28;20090;-51
2021/11/19 14:01:39;;;;;;;;;;;;;;;17.82;100.00;101108.69;5043607;28;20039;-51
2021/11/19 14:04:51;;;;;;;0.55;0.28;;;;;;;17.81;100.00;101104.31;5048428;28;19961;-54
2021/11/19 14:08:05;;;;;;;0.05;0.03;;;;;;;17.87;100.00;101096.69;5063401;28;20518;-55
2021/11/19 14:11:19;;;;;;;0.90;0.35;;;;;;;17.94;100.00;101096.28;5048964;28;20099;-53
2021/11/19 14:14:39;;;;;;;0.20;0.20;;;;;;;18.08;100.00;101092.56;5046728;28;20774;-54
2021/11/19 14:17:44;;;;;;;;;;;;;;;18.06;100.00;101092.28;5045438;28;20106;-54
2021/11/19 14:24:51;;;;;;;0.43;0.10;;;;;;;17.97;100.00;101089.66;5047532;28;20516;-54
2021/11/19 14:28:02;;;;;;;0.45;0.10;;;;;;;17.87;100.00;101084.66;5046182;28;20051;-54
2021/11/19 14:31:10;;;;;;;0.30;0.20;;;;;;;17.80;100.00;101091.50;5052550;28;20457;-54
2021/11/19 14:34:16;;;;;;;0.45;0.20;;;;;;;17.71;100.00;101093.72;5073336;28;20051;-54
2021/11/19 14:37:28;;;;;;;0.30;0.30;;;;;;;17.61;100.00;101097.91;5050068;28;20183;-57
2021/11/19 14:40:45;;;;;;;0.40;0.20;;;;;;;17.58;100.00;101101.75;5049182;28;20056;-54